createdAt,value
2022-09-07T00:01:12.448Z,4.30
2022-09-07T00:03:40.560Z,4.10
2022-09-07T00:06:10.999Z,4.50
2022-09-07T00:08:40.918Z,3.90
2022-09-07T00:11:14.224Z,4.40
2022-09-07T00:13:44.160Z,4.10
2022-09-07T00:16:18.586Z,3.80
2022-09-07T00:18:46.983Z,4.20
2022-09-07T00:21:17.775Z,5.70
2022-09-07T00:23:47.928Z,5.70
2022-09-07T00:26:22.320Z,5.80
2022-09-07T00:28:53.150Z,5.40
2022-09-07T00:31:24.379Z,5.80
2022-09-07T00:33:53.821Z,5.50
2022-09-07T00:36:22.770Z,5.30
2022-09-07T00:38:51.769Z,5.70
2022-09-07T00:41:22.343Z,5.10
2022-09-07T00:43:56.341Z,5.60
2022-09-07T00:46:32.073Z,5.90
2022-09-07T00:49:17.393Z,5.80
2022-09-07T00:52:12.899Z,5.70
2022-09-07T00:54:45.770Z,6.00
2022-09-07T00:57:14.523Z,5.90
2022-09-07T00:59:47.979Z,5.40
2022-09-07T01:02:17.711Z,5.10
2022-09-07T01:04:53.553Z,5.80
2022-09-07T01:07:22.021Z,6.20
2022-09-07T01:09:50.968Z,6.80
2022-09-07T01:12:18.972Z,7.00
2022-09-07T01:14:50.721Z,7.30
2022-09-07T01:17:36.568Z,7.60
2022-09-07T01:20:19.178Z,7.20
2022-09-07T01:22:53.660Z,8.00
2022-09-07T01:25:27.659Z,7.70
2022-09-07T01:28:19.212Z,7.10
2022-09-07T01:31:07.405Z,7.90
2022-09-07T01:34:11.491Z,7.60
2022-09-07T01:36:50.670Z,8.30
2022-09-07T01:39:22.182Z,7.90
2022-09-07T01:42:01.557Z,7.20
2022-09-07T01:44:41.648Z,7.70
2022-09-07T01:47:17.668Z,8.00
2022-09-07T01:49:57.046Z,9.20
2022-09-07T01:52:37.319Z,8.60
2022-09-07T01:55:19.388Z,10.40
2022-09-07T01:58:23.120Z,9.40
2022-09-07T02:01:00.246Z,9.00
2022-09-07T02:03:34.579Z,8.80
2022-09-07T02:06:12.445Z,9.10
2022-09-07T02:09:00.575Z,7.20
2022-09-07T02:11:44.700Z,8.00
2022-09-07T02:14:24.582Z,7.70
2022-09-07T02:17:00.978Z,6.90
2022-09-07T02:19:39.398Z,7.00
2022-09-07T02:22:13.839Z,7.00
2022-09-07T02:24:47.402Z,7.50
2022-09-07T02:27:19.544Z,8.10
2022-09-07T02:29:47.757Z,9.40
2022-09-07T02:32:15.780Z,7.50
2022-09-07T02:34:44.163Z,7.90
2022-09-07T02:37:15.502Z,6.40
2022-09-07T02:39:43.956Z,6.20
2022-09-07T02:42:12.147Z,7.00
2022-09-07T02:44:42.646Z,6.90
2022-09-07T02:47:29.979Z,7.70
2022-09-07T02:50:10.137Z,7.20
2022-09-07T02:52:56.501Z,7.40
2022-09-07T02:55:45.933Z,6.70
2022-09-07T02:58:29.800Z,7.00
2022-09-07T03:01:09.982Z,7.50
2022-09-07T03:03:44.062Z,8.40
2022-09-07T03:06:23.868Z,8.40
2022-09-07T03:08:55.990Z,7.80
2022-09-07T03:11:24.967Z,7.60
2022-09-07T03:13:53.111Z,7.90
2022-09-07T03:16:21.217Z,8.00
2022-09-07T03:18:49.996Z,7.20
2022-09-07T03:21:18.429Z,7.40
2022-09-07T03:23:51.174Z,8.10
2022-09-07T03:26:27.211Z,7.80
2022-09-07T03:28:55.276Z,8.40
2022-09-07T03:31:23.566Z,8.60
2022-09-07T03:33:51.811Z,10.20
2022-09-07T03:36:19.872Z,7.90
2022-09-07T03:38:48.055Z,7.70
2022-09-07T03:41:16.647Z,7.60
2022-09-07T03:43:44.931Z,7.80
2022-09-07T03:46:15.243Z,8.50
2022-09-07T03:48:43.827Z,8.40
2022-09-07T03:51:14.361Z,8.60
2022-09-07T03:53:45.377Z,8.90
2022-09-07T03:56:20.817Z,9.00
2022-09-07T03:58:50.562Z,8.60
2022-09-07T04:01:24.817Z,8.10
2022-09-07T04:03:53.477Z,8.30
2022-09-07T04:06:21.691Z,9.00
2022-09-07T04:08:50.009Z,8.60
2022-09-07T04:11:19.200Z,9.00
2022-09-07T04:13:47.340Z,8.80
2022-09-07T04:16:18.149Z,8.70
2022-09-07T04:18:47.366Z,8.20
2022-09-07T04:21:16.827Z,8.50
2022-09-07T04:23:45.717Z,7.70
2022-09-07T04:26:22.394Z,7.60
2022-09-07T04:28:54.630Z,7.80
2022-09-07T04:31:24.580Z,10.50
2022-09-07T04:33:54.555Z,10.90
2022-09-07T04:36:24.949Z,10.70
2022-09-07T04:38:59.638Z,12.70
2022-09-07T04:41:29.468Z,10.40
2022-09-07T04:44:00.154Z,9.20
2022-09-07T04:46:30.649Z,8.80
2022-09-07T04:49:01.942Z,8.70
2022-09-07T04:51:32.683Z,9.30
2022-09-07T04:54:03.981Z,8.70
2022-09-07T04:56:33.508Z,8.90
2022-09-07T04:59:05.252Z,9.20
2022-09-07T05:01:34.421Z,9.10
2022-09-07T05:04:05.245Z,9.60
2022-09-07T05:06:34.989Z,8.70
2022-09-07T05:09:03.682Z,8.40
2022-09-07T05:11:32.012Z,8.30
2022-09-07T05:14:01.947Z,8.50
2022-09-07T05:16:32.164Z,8.80
2022-09-07T05:19:03.233Z,10.10
2022-09-07T05:21:34.098Z,8.10
2022-09-07T05:24:02.829Z,32.10
2022-09-07T05:26:33.913Z,8.70
2022-09-07T05:31:55.071Z,8.90
2022-09-07T05:34:32.323Z,9.00
2022-09-07T05:37:02.177Z,8.20
2022-09-07T05:39:31.419Z,9.10
2022-09-07T05:42:01.199Z,11.10
2022-09-07T05:44:46.291Z,13.10
2022-09-07T05:49:43.408Z,10.90
2022-09-07T05:52:11.738Z,10.60
2022-09-07T05:54:40.521Z,9.10
2022-09-07T05:57:13.013Z,9.60
2022-09-07T05:59:42.104Z,8.50
2022-09-07T06:02:15.240Z,9.90
2022-09-07T06:04:45.906Z,15.40
2022-09-07T06:07:22.995Z,12.30
2022-09-07T06:12:39.692Z,13.40
2022-09-07T06:15:08.401Z,9.70
2022-09-07T06:17:36.659Z,11.90
2022-09-07T06:20:07.049Z,11.90
2022-09-07T06:22:36.795Z,13.40
2022-09-07T06:25:05.879Z,12.30
2022-09-07T06:27:34.444Z,10.40
2022-09-07T06:30:03.148Z,11.90
2022-09-07T06:32:46.842Z,10.40
2022-09-07T06:35:15.976Z,10.70
2022-09-07T06:37:44.742Z,10.80
2022-09-07T06:40:13.380Z,12.20
2022-09-07T06:42:41.660Z,9.20
2022-09-07T06:45:12.101Z,9.70
2022-09-07T06:47:41.027Z,8.90
2022-09-07T06:50:10.040Z,8.50
2022-09-07T06:55:28.013Z,8.20
2022-09-07T06:57:56.411Z,8.00
2022-09-07T07:00:24.892Z,7.50
2022-09-07T07:02:53.635Z,7.20
2022-09-07T07:05:22.130Z,7.60
2022-09-07T07:07:50.239Z,6.50
2022-09-07T07:10:23.676Z,6.40
2022-09-07T07:12:57.649Z,5.60
2022-09-07T07:15:28.544Z,5.80
2022-09-07T07:18:05.997Z,5.90
2022-09-07T07:20:46.414Z,5.70
2022-09-07T07:23:15.175Z,5.00
2022-09-07T07:25:43.862Z,6.80
2022-09-07T07:31:05.974Z,5.40
2022-09-07T07:33:38.144Z,10.00
2022-09-07T07:36:27.059Z,5.50
2022-09-07T07:44:20.799Z,4.80
2022-09-07T07:46:50.510Z,5.90
2022-09-07T07:49:19.246Z,5.10
2022-09-07T07:54:37.091Z,5.50
2022-09-07T07:57:06.084Z,5.60
2022-09-07T07:59:35.257Z,4.90
2022-09-07T08:02:05.548Z,5.00
2022-09-07T08:04:34.944Z,5.10
2022-09-07T08:07:09.473Z,5.00
2022-09-07T08:09:47.680Z,6.00
2022-09-07T08:12:21.454Z,5.50
2022-09-07T08:14:49.877Z,5.80
2022-09-07T08:17:18.530Z,5.40
2022-09-07T08:19:47.633Z,5.90
2022-09-07T08:22:18.367Z,6.70
2022-09-07T08:24:46.522Z,5.40
2022-09-07T08:27:18.038Z,5.30
2022-09-07T08:29:46.878Z,5.70
2022-09-07T08:32:18.632Z,7.90
2022-09-07T08:34:47.383Z,6.40
2022-09-07T08:37:15.910Z,6.30
2022-09-07T08:39:44.332Z,6.20
2022-09-07T08:42:45.455Z,7.10
2022-09-07T08:45:52.321Z,7.30
2022-09-07T08:48:32.728Z,8.60
2022-09-07T08:51:35.194Z,7.70
2022-09-07T08:54:05.748Z,8.20
2022-09-07T08:57:20.453Z,8.50
2022-09-07T08:59:46.833Z,8.50
2022-09-07T09:02:38.504Z,8.40
2022-09-07T09:05:34.621Z,9.30
2022-09-07T09:08:27.894Z,12.60
2022-09-07T09:11:17.046Z,12.00
2022-09-07T09:14:10.087Z,8.80
2022-09-07T09:16:46.047Z,8.80
2022-09-07T09:19:55.612Z,10.10
2022-09-07T09:22:28.683Z,10.90
2022-09-07T09:25:16.117Z,13.90
2022-09-07T09:27:46.918Z,10.80
2022-09-07T09:30:23.704Z,9.60
2022-09-07T09:33:11.936Z,8.60
2022-09-07T09:35:41.509Z,10.00
2022-09-07T09:38:46.317Z,10.10
2022-09-07T09:41:15.967Z,10.80
2022-09-07T09:43:54.430Z,9.30
2022-09-07T09:46:28.419Z,8.80
2022-09-07T09:49:00.500Z,9.60
2022-09-07T09:54:45.785Z,9.50
2022-09-07T09:57:18.053Z,10.90
2022-09-07T10:00:10.941Z,10.90
2022-09-07T10:05:37.387Z,10.20
2022-09-07T10:08:28.852Z,11.60
2022-09-07T10:11:05.189Z,11.80
2022-09-07T10:13:35.655Z,10.70
2022-09-07T10:16:09.742Z,12.80
2022-09-07T10:18:41.199Z,13.60
2022-09-07T10:21:18.433Z,13.80
2022-09-07T10:23:49.490Z,12.90
2022-09-07T10:26:28.201Z,11.90
2022-09-07T10:29:14.980Z,11.70
2022-09-07T10:31:57.131Z,12.10
2022-09-07T10:34:52.049Z,12.40
2022-09-07T10:37:42.422Z,11.40
2022-09-07T10:40:38.074Z,11.10
2022-09-07T10:43:23.283Z,11.80
2022-09-07T10:49:34.498Z,10.90
2022-09-07T10:52:35.855Z,9.20
2022-09-07T10:55:07.623Z,8.10
2022-09-07T10:58:00.071Z,8.60
2022-09-07T11:00:38.397Z,10.10
2022-09-07T11:03:27.893Z,10.40
2022-09-07T11:06:55.185Z,9.20
2022-09-07T11:09:29.410Z,8.90
2022-09-07T11:12:08.709Z,9.70
2022-09-07T11:15:35.988Z,8.60
2022-09-07T11:18:21.177Z,10.50
2022-09-07T11:21:01.064Z,7.90
2022-09-07T11:23:41.729Z,6.20
2022-09-07T11:26:36.327Z,6.40
2022-09-07T11:29:31.017Z,12.00
2022-09-07T11:32:12.259Z,7.00
2022-09-07T11:34:53.998Z,5.80
2022-09-07T11:37:37.784Z,7.70
2022-09-07T11:40:21.681Z,7.00
2022-09-07T11:43:16.532Z,6.50
2022-09-07T11:48:30.848Z,5.70
2022-09-07T11:51:03.765Z,5.20
2022-09-07T11:53:39.410Z,5.50
2022-09-07T11:56:14.336Z,5.90
2022-09-07T11:59:01.660Z,4.90
2022-09-07T12:02:03.997Z,4.90
2022-09-07T12:04:56.366Z,7.20
2022-09-07T12:07:48.869Z,4.30
2022-09-07T12:10:33.271Z,3.80
2022-09-07T12:13:20.678Z,3.60
2022-09-07T12:15:52.254Z,3.90
2022-09-07T12:18:35.720Z,3.60
2022-09-07T12:21:04.186Z,4.60
2022-09-07T12:27:05.434Z,3.60
2022-09-07T12:29:45.111Z,3.60
2022-09-07T12:32:54.627Z,3.50
2022-09-07T12:35:43.195Z,5.10
2022-09-07T12:38:18.574Z,4.20
2022-09-07T12:40:55.693Z,3.00
2022-09-07T12:43:27.692Z,3.00
2022-09-07T12:46:36.545Z,3.30
2022-09-07T12:49:31.702Z,3.50
2022-09-07T12:52:41.800Z,2.70
2022-09-07T12:58:42.834Z,2.90
2022-09-07T13:02:00.654Z,3.00
2022-09-07T13:05:06.321Z,3.50
2022-09-07T13:08:14.110Z,2.90
2022-09-07T13:10:56.138Z,2.80
2022-09-07T13:16:29.543Z,4.40
2022-09-07T13:19:01.907Z,3.40
2022-09-07T13:21:38.230Z,3.10
2022-09-07T13:27:27.018Z,3.30
2022-09-07T13:30:20.324Z,3.40
2022-09-07T13:35:45.936Z,3.00
2022-09-07T13:38:16.817Z,3.90
2022-09-07T13:40:50.495Z,3.90
2022-09-07T13:43:22.230Z,3.90
2022-09-07T13:45:55.419Z,3.80
2022-09-07T13:48:46.871Z,4.10
2022-09-07T13:51:34.166Z,4.50
2022-09-07T13:54:22.644Z,4.90
2022-09-07T13:57:39.834Z,5.10
2022-09-07T14:00:15.268Z,5.10
2022-09-07T14:02:43.974Z,4.50
2022-09-07T14:05:18.817Z,4.80
2022-09-07T14:10:20.832Z,5.10
2022-09-07T14:12:53.289Z,5.20
2022-09-07T14:15:44.067Z,4.90
2022-09-07T14:18:18.557Z,4.90
2022-09-07T14:21:17.337Z,4.20
2022-09-07T14:23:51.388Z,4.00
2022-09-07T14:26:22.854Z,4.50
2022-09-07T14:28:57.844Z,4.20
2022-09-07T14:31:27.372Z,5.20
2022-09-07T14:33:58.634Z,4.30
2022-09-07T14:36:45.501Z,3.80
2022-09-07T14:39:22.009Z,4.20
2022-09-07T14:41:51.200Z,5.20
2022-09-07T14:44:40.565Z,4.60
2022-09-07T14:47:29.199Z,6.90
2022-09-07T14:50:06.005Z,4.60
2022-09-07T14:52:43.695Z,5.10
2022-09-07T14:55:33.755Z,4.10
2022-09-07T14:58:22.483Z,7.50
2022-09-07T15:04:00.311Z,8.30
2022-09-07T15:09:45.325Z,4.50
2022-09-07T15:12:36.517Z,4.60
2022-09-07T15:15:18.645Z,5.50
2022-09-07T15:17:49.311Z,5.70
2022-09-07T15:20:32.923Z,5.70
2022-09-07T15:23:04.605Z,5.10
2022-09-07T15:25:34.668Z,6.00
2022-09-07T15:28:04.770Z,5.90
2022-09-07T15:30:34.141Z,5.40
2022-09-07T15:33:02.410Z,5.50
2022-09-07T15:35:31.329Z,5.10
2022-09-07T15:38:04.985Z,5.10
2022-09-07T15:41:03.775Z,6.40
2022-09-07T15:43:31.797Z,4.30
2022-09-07T15:46:00.411Z,4.90
2022-09-07T15:48:28.655Z,4.60
2022-09-07T15:52:04.813Z,5.60
2022-09-07T15:57:48.054Z,4.60
2022-09-07T15:59:38.051Z,4.90
2022-09-07T16:03:04.673Z,4.60
2022-09-07T16:04:57.049Z,4.30
2022-09-07T16:08:24.891Z,5.80
2022-09-07T16:10:15.270Z,4.90
2022-09-07T16:15:34.469Z,4.70
2022-09-07T16:18:03.386Z,6.40
2022-09-07T16:20:32.221Z,5.30
2022-09-07T16:23:17.223Z,4.70
2022-09-07T16:25:59.656Z,5.50
2022-09-07T16:28:28.482Z,5.70
2022-09-07T16:30:58.230Z,4.80
2022-09-07T16:33:33.034Z,5.40
2022-09-07T16:36:09.681Z,6.00
2022-09-07T16:38:44.709Z,6.10
2022-09-07T16:41:24.199Z,6.20
2022-09-07T16:43:54.732Z,5.70
2022-09-07T16:46:26.231Z,6.10
2022-09-07T16:48:55.459Z,6.20
2022-09-07T16:51:25.012Z,5.10
2022-09-07T16:53:56.802Z,5.60
2022-09-07T16:56:28.066Z,6.50
2022-09-07T16:59:01.213Z,5.40
2022-09-07T17:01:32.922Z,6.30
2022-09-07T17:04:04.509Z,6.50
2022-09-07T17:06:36.696Z,7.20
2022-09-07T17:09:05.613Z,8.00
2022-09-07T17:11:37.523Z,7.80
2022-09-07T17:14:09.019Z,6.80
2022-09-07T17:16:41.515Z,6.90
2022-09-07T17:22:03.744Z,7.80
2022-09-07T17:24:32.542Z,9.80
2022-09-07T17:27:02.050Z,11.20
2022-09-07T17:29:33.838Z,8.20
2022-09-07T17:34:51.708Z,6.60
2022-09-07T17:37:20.426Z,7.00
2022-09-07T17:39:48.510Z,7.60
2022-09-07T17:42:19.481Z,6.90
2022-09-07T17:44:52.794Z,7.40
2022-09-07T17:47:21.615Z,7.20
2022-09-07T17:49:49.885Z,6.70
2022-09-07T17:52:18.208Z,7.00
2022-09-07T17:54:46.283Z,6.00
2022-09-07T17:57:14.353Z,6.50
2022-09-07T18:02:38.663Z,7.20
2022-09-07T18:05:07.497Z,15.20
2022-09-07T18:07:35.855Z,7.80
2022-09-07T18:10:05.060Z,7.70
2022-09-07T18:12:33.342Z,8.50
2022-09-07T18:15:01.495Z,9.10
2022-09-07T18:17:29.669Z,9.30
2022-09-07T18:19:58.056Z,9.60
2022-09-07T18:22:26.482Z,8.80
2022-09-07T18:24:54.612Z,9.50
2022-09-07T18:27:22.879Z,8.60
2022-09-07T18:29:50.891Z,8.70
2022-09-07T18:32:19.168Z,8.80
2022-09-07T18:34:50.495Z,10.30
2022-09-07T18:37:19.384Z,11.00
2022-09-07T18:39:49.453Z,12.00
2022-09-07T18:42:17.812Z,12.30
2022-09-07T18:47:39.772Z,14.70
2022-09-07T18:50:09.347Z,15.00
2022-09-07T18:52:53.522Z,14.60
2022-09-07T18:55:22.212Z,15.60
2022-09-07T18:57:50.289Z,16.30
2022-09-07T19:00:20.035Z,15.70
2022-09-07T19:02:51.721Z,16.50
2022-09-07T19:08:08.788Z,15.20
2022-09-07T19:10:37.362Z,14.80
2022-09-07T19:13:08.719Z,16.00
2022-09-07T19:15:38.039Z,15.20
2022-09-07T19:18:08.014Z,15.60
2022-09-07T19:20:36.632Z,14.90
2022-09-07T19:23:06.478Z,14.10
2022-09-07T19:25:39.851Z,11.80
2022-09-07T19:28:08.345Z,10.20
2022-09-07T19:30:36.561Z,9.80
2022-09-07T19:33:07.258Z,9.30
2022-09-07T19:35:36.360Z,9.70
2022-09-07T19:38:04.821Z,9.40
2022-09-07T19:40:33.064Z,9.60
2022-09-07T19:43:01.375Z,9.50
2022-09-07T19:45:29.541Z,9.50
2022-09-07T19:47:58.036Z,9.00
2022-09-07T19:50:26.584Z,8.20
2022-09-07T19:52:54.668Z,8.90
2022-09-07T19:55:22.886Z,8.80
2022-09-07T19:57:52.621Z,9.30
2022-09-07T20:00:23.195Z,9.90
2022-09-07T20:02:52.468Z,9.60
2022-09-07T20:05:20.509Z,9.60
2022-09-07T20:07:48.572Z,7.80
2022-09-07T20:10:17.705Z,8.90
2022-09-07T20:12:45.895Z,8.00
2022-09-07T20:15:15.247Z,8.60
2022-09-07T20:17:46.111Z,10.40
2022-09-07T20:20:16.864Z,10.90
2022-09-07T20:22:45.074Z,11.60
2022-09-07T20:25:13.770Z,11.30
2022-09-07T20:27:41.906Z,10.50
2022-09-07T20:30:11.793Z,10.60
2022-09-07T20:32:40.083Z,10.80
2022-09-07T20:35:08.779Z,11.00
2022-09-07T20:37:37.576Z,12.50
2022-09-07T20:40:06.491Z,10.70
2022-09-07T20:42:34.818Z,9.50
2022-09-07T20:45:03.544Z,8.70
2022-09-07T20:47:31.627Z,8.00
2022-09-07T20:49:59.998Z,8.80
2022-09-07T20:52:27.919Z,8.70
2022-09-07T20:54:55.832Z,8.20
2022-09-07T20:57:24.097Z,9.10
2022-09-07T20:59:52.924Z,8.30
2022-09-07T21:02:21.167Z,8.30
2022-09-07T21:04:49.207Z,8.50
2022-09-07T21:07:17.789Z,9.10
2022-09-07T21:09:46.014Z,9.80
2022-09-07T21:12:14.039Z,8.80
2022-09-07T21:14:42.721Z,7.90
2022-09-07T21:17:10.967Z,7.70
2022-09-07T21:19:39.054Z,8.40
2022-09-07T21:22:07.245Z,7.90
2022-09-07T21:24:35.325Z,7.40
2022-09-07T21:27:03.504Z,7.40
2022-09-07T21:29:31.585Z,7.00
2022-09-07T21:32:00.153Z,6.80
2022-09-07T21:34:28.149Z,7.20
2022-09-07T21:36:58.192Z,7.60
2022-09-07T21:39:26.232Z,8.10
2022-09-07T21:41:54.191Z,7.60
2022-09-07T21:44:22.367Z,7.80
2022-09-07T21:46:51.308Z,7.70
2022-09-07T21:49:21.037Z,8.20
2022-09-07T21:51:49.050Z,7.20
2022-09-07T21:54:17.040Z,7.20
2022-09-07T21:56:46.787Z,6.90
2022-09-07T21:59:17.454Z,6.90
2022-09-07T22:01:45.424Z,7.00
2022-09-07T22:04:13.731Z,6.50
2022-09-07T22:06:41.812Z,6.80
2022-09-07T22:09:11.053Z,6.60
2022-09-07T22:11:41.146Z,6.40
2022-09-07T22:14:14.628Z,6.70
2022-09-07T22:16:42.790Z,7.30
2022-09-07T22:19:12.302Z,7.90
2022-09-07T22:21:40.329Z,7.40
2022-09-07T22:24:08.510Z,7.40
2022-09-07T22:26:38.357Z,6.90
2022-09-07T22:29:10.871Z,7.40
2022-09-07T22:31:40.162Z,6.70
2022-09-07T22:34:09.550Z,6.90
2022-09-07T22:36:43.563Z,7.00
2022-09-07T22:39:14.979Z,7.50
2022-09-07T22:41:44.011Z,8.10
2022-09-07T22:44:15.040Z,7.90
2022-09-07T22:46:46.290Z,7.90
2022-09-07T22:49:18.767Z,7.80
2022-09-07T22:51:46.987Z,7.50
2022-09-07T22:54:15.236Z,7.40
2022-09-07T22:56:43.330Z,7.10
2022-09-07T22:59:12.540Z,7.70
2022-09-07T23:01:42.062Z,7.30
2022-09-07T23:04:10.877Z,7.70
2022-09-07T23:06:41.732Z,8.50
2022-09-07T23:09:13.250Z,7.90
2022-09-07T23:11:42.382Z,8.10
2022-09-07T23:14:19.541Z,9.10
2022-09-07T23:16:48.104Z,9.40
2022-09-07T23:19:18.527Z,9.00
2022-09-07T23:21:47.581Z,9.00
2022-09-07T23:24:18.187Z,9.40
2022-09-07T23:26:47.075Z,10.70
2022-09-07T23:29:15.779Z,10.10
2022-09-07T23:31:47.044Z,9.80
2022-09-07T23:34:15.201Z,9.90
2022-09-07T23:36:43.398Z,10.10
2022-09-07T23:39:12.472Z,9.20
2022-09-07T23:41:40.459Z,9.90
2022-09-07T23:44:08.574Z,10.90
2022-09-07T23:46:36.706Z,10.80
2022-09-07T23:49:05.540Z,11.10
2022-09-07T23:51:33.621Z,10.10
2022-09-07T23:54:01.620Z,9.80
2022-09-07T23:56:31.194Z,9.80
2022-09-07T23:58:59.273Z,11.30
